sensor_id;sensor_type;location;lat;lon;timestamp;pressure;altitude;pressure_sealevel;temperature;humidity
20023;BME280;10172;42.054;24.546;2022-10-26T00:00:04;98411.28;;;18.55;65.65
20023;BME280;10172;42.054;24.546;2022-10-26T00:02:30;98428.06;;;18.39;66.09
20023;BME280;10172;42.054;24.546;2022-10-26T00:04:55;98421.44;;;18.70;64.82
20023;BME280;10172;42.054;24.546;2022-10-26T00:07:21;98397.34;;;17.29;70.55
20023;BME280;10172;42.054;24.546;2022-10-26T00:09:46;98428.44;;;18.17;67.47
20023;BME280;10172;42.054;24.546;2022-10-26T00:12:12;98426.09;;;18.41;65.34
20023;BME280;10172;42.054;24.546;2022-10-26T00:14:37;98422.75;;;18.84;63.41
20023;BME280;10172;42.054;24.546;2022-10-26T00:17:03;98423.38;;;18.50;64.83
20023;BME280;10172;42.054;24.546;2022-10-26T00:19:28;98423.16;;;17.98;67.54
20023;BME280;10172;42.054;24.546;2022-10-26T00:21:56;98431.50;;;18.41;65.90
20023;BME280;10172;42.054;24.546;2022-10-26T00:24:22;98427.47;;;18.45;64.01
20023;BME280;10172;42.054;24.546;2022-10-26T00:26:47;98432.22;;;18.33;65.63
20023;BME280;10172;42.054;24.546;2022-10-26T00:29:13;98433.16;;;18.52;64.38
20023;BME280;10172;42.054;24.546;2022-10-26T00:31:38;98435.31;;;18.11;66.80
20023;BME280;10172;42.054;24.546;2022-10-26T00:34:04;98441.69;;;18.01;67.23
20023;BME280;10172;42.054;24.546;2022-10-26T00:36:30;98417.47;;;18.01;66.96
20023;BME280;10172;42.054;24.546;2022-10-26T00:38:56;98434.78;;;17.88;67.85
20023;BME280;10172;42.054;24.546;2022-10-26T00:41:28;98440.84;;;18.37;65.85
20023;BME280;10172;42.054;24.546;2022-10-26T00:43:54;98400.56;;;17.52;68.30
20023;BME280;10172;42.054;24.546;2022-10-26T00:46:36;98439.00;;;18.01;67.56
20023;BME280;10172;42.054;24.546;2022-10-26T00:49:14;98431.00;;;17.53;70.24
20023;BME280;10172;42.054;24.546;2022-10-26T00:51:43;98415.03;;;17.32;70.47
20023;BME280;10172;42.054;24.546;2022-10-26T00:54:14;98439.66;;;17.56;69.63
20023;BME280;10172;42.054;24.546;2022-10-26T00:56:43;98423.97;;;18.08;66.94
20023;BME280;10172;42.054;24.546;2022-10-26T00:59:11;98447.28;;;18.17;67.33
20023;BME280;10172;42.054;24.546;2022-10-26T01:01:40;98417.59;;;17.62;69.11
20023;BME280;10172;42.054;24.546;2022-10-26T01:04:08;98437.97;;;17.65;69.89
20023;BME280;10172;42.054;24.546;2022-10-26T01:06:34;98440.63;;;17.36;71.22
20023;BME280;10172;42.054;24.546;2022-10-26T01:09:03;98440.50;;;17.47;70.48
20023;BME280;10172;42.054;24.546;2022-10-26T01:11:28;98452.69;;;17.32;71.01
20023;BME280;10172;42.054;24.546;2022-10-26T01:13:55;98439.94;;;17.15;72.14
20023;BME280;10172;42.054;24.546;2022-10-26T01:19:30;98377.81;;;16.80;72.05
20023;BME280;10172;42.054;24.546;2022-10-26T01:27:28;98447.09;;;16.66;75.58
20023;BME280;10172;42.054;24.546;2022-10-26T01:38:29;98435.22;;;16.39;77.29
20023;BME280;10172;42.054;24.546;2022-10-26T01:41:03;98410.69;;;16.43;77.00
20023;BME280;10172;42.054;24.546;2022-10-26T01:43:34;98425.06;;;16.42;78.22
20023;BME280;10172;42.054;24.546;2022-10-26T01:46:03;98422.03;;;16.17;79.50
20023;BME280;10172;42.054;24.546;2022-10-26T01:48:31;98423.53;;;16.49;77.40
20023;BME280;10172;42.054;24.546;2022-10-26T01:50:58;98428.91;;;17.18;73.82
20023;BME280;10172;42.054;24.546;2022-10-26T01:53:26;98424.44;;;17.93;70.70
20023;BME280;10172;42.054;24.546;2022-10-26T01:55:53;98435.88;;;17.96;69.91
20023;BME280;10172;42.054;24.546;2022-10-26T01:58:30;98415.47;;;17.37;72.05
20023;BME280;10172;42.054;24.546;2022-10-26T02:06:30;98429.03;;;17.64;72.30
20023;BME280;10172;42.054;24.546;2022-10-26T02:11:52;98402.72;;;17.58;72.48
20023;BME280;10172;42.054;24.546;2022-10-26T02:17:01;98416.69;;;17.71;72.86
20023;BME280;10172;42.054;24.546;2022-10-26T02:19:48;98418.34;;;17.91;71.68
20023;BME280;10172;42.054;24.546;2022-10-26T02:22:19;98416.63;;;18.64;68.76
20023;BME280;10172;42.054;24.546;2022-10-26T02:24:50;98426.00;;;18.60;67.81
20023;BME280;10172;42.054;24.546;2022-10-26T02:27:20;98427.69;;;18.34;69.23
20023;BME280;10172;42.054;24.546;2022-10-26T02:29:48;98430.59;;;18.50;68.54
20023;BME280;10172;42.054;24.546;2022-10-26T02:32:16;98426.34;;;18.92;66.48
20023;BME280;10172;42.054;24.546;2022-10-26T02:34:44;98425.09;;;18.42;68.25
20023;BME280;10172;42.054;24.546;2022-10-26T02:37:12;98424.09;;;18.43;68.03
20023;BME280;10172;42.054;24.546;2022-10-26T02:39:40;98421.09;;;17.72;71.30
20023;BME280;10172;42.054;24.546;2022-10-26T02:42:08;98430.69;;;17.84;71.42
20023;BME280;10172;42.054;24.546;2022-10-26T02:44:43;98419.13;;;17.55;72.98
20023;BME280;10172;42.054;24.546;2022-10-26T02:47:10;98425.78;;;17.13;75.13
20023;BME280;10172;42.054;24.546;2022-10-26T02:49:36;98407.66;;;16.96;76.17
20023;BME280;10172;42.054;24.546;2022-10-26T02:52:11;98407.25;;;17.10;75.48
20023;BME280;10172;42.054;24.546;2022-10-26T02:57:36;98431.44;;;17.48;74.27
20023;BME280;10172;42.054;24.546;2022-10-26T03:00:10;98409.66;;;17.32;74.32
20023;BME280;10172;42.054;24.546;2022-10-26T03:02:36;98418.97;;;17.47;74.49
20023;BME280;10172;42.054;24.546;2022-10-26T03:05:22;98436.56;;;17.32;75.79
20023;BME280;10172;42.054;24.546;2022-10-26T03:07:49;98430.84;;;16.78;78.38
20023;BME280;10172;42.054;24.546;2022-10-26T03:10:14;98440.47;;;16.70;79.40
20023;BME280;10172;42.054;24.546;2022-10-26T03:12:40;98431.28;;;16.83;79.04
20023;BME280;10172;42.054;24.546;2022-10-26T03:15:05;98435.13;;;17.28;76.93
20023;BME280;10172;42.054;24.546;2022-10-26T03:17:31;98443.03;;;17.01;77.99
20023;BME280;10172;42.054;24.546;2022-10-26T03:19:57;98439.78;;;17.07;78.24
20023;BME280;10172;42.054;24.546;2022-10-26T03:22:22;98446.44;;;17.03;78.63
20023;BME280;10172;42.054;24.546;2022-10-26T03:24:48;98454.44;;;16.74;79.85
20023;BME280;10172;42.054;24.546;2022-10-26T03:27:13;98453.38;;;15.86;86.08
20023;BME280;10172;42.054;24.546;2022-10-26T03:29:39;98446.31;;;16.15;84.40
20023;BME280;10172;42.054;24.546;2022-10-26T03:32:05;98447.63;;;16.30;83.96
20023;BME280;10172;42.054;24.546;2022-10-26T03:34:30;98442.84;;;16.34;83.54
20023;BME280;10172;42.054;24.546;2022-10-26T03:36:56;98443.13;;;16.31;83.89
20023;BME280;10172;42.054;24.546;2022-10-26T03:39:21;98443.59;;;16.45;83.26
20023;BME280;10172;42.054;24.546;2022-10-26T03:41:47;98424.53;;;15.78;86.80
20023;BME280;10172;42.054;24.546;2022-10-26T03:44:12;98416.69;;;16.26;84.17
20023;BME280;10172;42.054;24.546;2022-10-26T03:46:38;98441.19;;;16.42;83.05
20023;BME280;10172;42.054;24.546;2022-10-26T03:49:04;98432.63;;;15.88;86.87
20023;BME280;10172;42.054;24.546;2022-10-26T03:51:29;98455.97;;;16.27;85.09
20023;BME280;10172;42.054;24.546;2022-10-26T03:53:55;98427.00;;;16.21;84.61
20023;BME280;10172;42.054;24.546;2022-10-26T03:56:20;98439.47;;;16.32;83.97
20023;BME280;10172;42.054;24.546;2022-10-26T03:58:46;98436.50;;;16.04;84.03
20023;BME280;10172;42.054;24.546;2022-10-26T04:01:11;98447.84;;;15.57;89.16
20023;BME280;10172;42.054;24.546;2022-10-26T04:03:37;98446.72;;;15.60;88.16
20023;BME280;10172;42.054;24.546;2022-10-26T04:06:03;98453.88;;;15.80;88.43
20023;BME280;10172;42.054;24.546;2022-10-26T04:08:28;98467.78;;;16.15;86.42
20023;BME280;10172;42.054;24.546;2022-10-26T04:10:54;98467.78;;;16.15;85.07
20023;BME280;10172;42.054;24.546;2022-10-26T04:13:19;98464.28;;;16.24;84.04
20023;BME280;10172;42.054;24.546;2022-10-26T04:15:45;98483.47;;;16.20;84.01
20023;BME280;10172;42.054;24.546;2022-10-26T04:18:10;98470.81;;;16.31;82.20
20023;BME280;10172;42.054;24.546;2022-10-26T04:20:38;98486.16;;;16.90;79.44
20023;BME280;10172;42.054;24.546;2022-10-26T04:23:06;98477.53;;;16.16;83.22
20023;BME280;10172;42.054;24.546;2022-10-26T04:25:34;98482.53;;;16.00;84.29
20023;BME280;10172;42.054;24.546;2022-10-26T04:28:01;98457.38;;;15.18;90.00
20023;BME280;10172;42.054;24.546;2022-10-26T04:30:28;98485.94;;;15.61;88.49
20023;BME280;10172;42.054;24.546;2022-10-26T04:32:53;98481.03;;;15.86;86.14
20023;BME280;10172;42.054;24.546;2022-10-26T04:35:19;98492.69;;;15.76;86.30
20023;BME280;10172;42.054;24.546;2022-10-26T04:37:44;98503.13;;;15.79;86.79
20023;BME280;10172;42.054;24.546;2022-10-26T04:40:10;98508.88;;;15.22;90.35
20023;BME280;10172;42.054;24.546;2022-10-26T04:42:40;98513.09;;;15.35;90.04
20023;BME280;10172;42.054;24.546;2022-10-26T04:45:07;98507.31;;;15.92;85.86
20023;BME280;10172;42.054;24.546;2022-10-26T04:47:32;98516.59;;;15.36;89.36
20023;BME280;10172;42.054;24.546;2022-10-26T04:49:58;98510.00;;;15.92;85.73
20023;BME280;10172;42.054;24.546;2022-10-26T04:52:23;98511.78;;;16.33;83.25
20023;BME280;10172;42.054;24.546;2022-10-26T04:54:49;98511.59;;;16.46;82.17
20023;BME280;10172;42.054;24.546;2022-10-26T04:57:14;98521.72;;;16.42;83.17
20023;BME280;10172;42.054;24.546;2022-10-26T04:59:39;98526.22;;;16.32;83.22
20023;BME280;10172;42.054;24.546;2022-10-26T05:02:05;98535.13;;;15.71;87.41
20023;BME280;10172;42.054;24.546;2022-10-26T05:04:30;98528.22;;;15.89;87.18
20023;BME280;10172;42.054;24.546;2022-10-26T05:06:56;98530.47;;;16.35;84.43
20023;BME280;10172;42.054;24.546;2022-10-26T05:09:21;98525.88;;;16.46;83.44
20023;BME280;10172;42.054;24.546;2022-10-26T05:11:46;98537.38;;;16.07;85.13
20023;BME280;10172;42.054;24.546;2022-10-26T05:14:12;98534.75;;;16.17;85.30
20023;BME280;10172;42.054;24.546;2022-10-26T05:16:37;98537.34;;;16.98;81.36
20023;BME280;10172;42.054;24.546;2022-10-26T05:19:03;98540.72;;;16.50;82.96
20023;BME280;10172;42.054;24.546;2022-10-26T05:21:29;98539.38;;;16.35;84.73
20023;BME280;10172;42.054;24.546;2022-10-26T05:23:54;98550.19;;;16.75;82.91
20023;BME280;10172;42.054;24.546;2022-10-26T05:26:23;98556.34;;;16.15;86.14
20023;BME280;10172;42.054;24.546;2022-10-26T05:28:48;98566.28;;;16.03;87.27
20023;BME280;10172;42.054;24.546;2022-10-26T05:31:14;98554.59;;;15.84;88.90
20023;BME280;10172;42.054;24.546;2022-10-26T05:33:39;98553.91;;;16.53;85.40
20023;BME280;10172;42.054;24.546;2022-10-26T05:36:05;98566.00;;;17.08;81.92
20023;BME280;10172;42.054;24.546;2022-10-26T05:38:31;98561.19;;;16.72;83.53
20023;BME280;10172;42.054;24.546;2022-10-26T05:40:56;98562.91;;;16.52;84.73
20023;BME280;10172;42.054;24.546;2022-10-26T05:43:24;98559.66;;;16.49;85.53
20023;BME280;10172;42.054;24.546;2022-10-26T05:45:50;98564.88;;;17.11;82.47
20023;BME280;10172;42.054;24.546;2022-10-26T05:48:16;98572.19;;;17.77;78.97
20023;BME280;10172;42.054;24.546;2022-10-26T05:50:41;98575.19;;;17.15;81.55
20023;BME280;10172;42.054;24.546;2022-10-26T05:53:07;98580.59;;;17.34;81.48
20023;BME280;10172;42.054;24.546;2022-10-26T05:55:32;98580.53;;;17.06;81.98
20023;BME280;10172;42.054;24.546;2022-10-26T05:57:58;98591.66;;;17.41;80.93
20023;BME280;10172;42.054;24.546;2022-10-26T06:00:26;98576.44;;;17.70;78.57
20023;BME280;10172;42.054;24.546;2022-10-26T06:05:34;98583.69;;;17.20;82.04
20023;BME280;10172;42.054;24.546;2022-10-26T06:08:02;98594.00;;;17.84;78.71
20023;BME280;10172;42.054;24.546;2022-10-26T06:10:27;98582.03;;;18.25;76.24
20023;BME280;10172;42.054;24.546;2022-10-26T06:12:53;98585.19;;;18.01;77.64
20023;BME280;10172;42.054;24.546;2022-10-26T06:15:20;98583.59;;;18.37;76.14
20023;BME280;10172;42.054;24.546;2022-10-26T06:20:50;98595.97;;;19.13;73.15
20023;BME280;10172;42.054;24.546;2022-10-26T06:26:35;98593.19;;;18.95;72.68
20023;BME280;10172;42.054;24.546;2022-10-26T06:31:39;98600.81;;;19.09;70.87
20023;BME280;10172;42.054;24.546;2022-10-26T06:34:04;98600.41;;;19.32;70.91
20023;BME280;10172;42.054;24.546;2022-10-26T06:36:30;98603.03;;;19.68;69.44
20023;BME280;10172;42.054;24.546;2022-10-26T06:39:04;98615.22;;;20.69;65.83
20023;BME280;10172;42.054;24.546;2022-10-26T06:41:32;98602.56;;;21.03;63.76
20023;BME280;10172;42.054;24.546;2022-10-26T06:43:58;98594.22;;;20.63;64.25
20023;BME280;10172;42.054;24.546;2022-10-26T06:49:33;98606.34;;;20.33;65.37
20023;BME280;10172;42.054;24.546;2022-10-26T06:54:47;98611.28;;;19.67;67.56
20023;BME280;10172;42.054;24.546;2022-10-26T06:57:15;98597.88;;;19.75;66.24
20023;BME280;10172;42.054;24.546;2022-10-26T07:02:10;98611.00;;;20.05;65.39
20023;BME280;10172;42.054;24.546;2022-10-26T07:04:36;98598.63;;;20.20;65.01
20023;BME280;10172;42.054;24.546;2022-10-26T07:07:01;98603.16;;;20.20;64.84
20023;BME280;10172;42.054;24.546;2022-10-26T07:09:27;98605.38;;;20.60;63.39
20023;BME280;10172;42.054;24.546;2022-10-26T07:11:52;98601.09;;;19.96;65.17
20023;BME280;10172;42.054;24.546;2022-10-26T07:14:17;98597.19;;;20.08;64.79
20023;BME280;10172;42.054;24.546;2022-10-26T07:16:43;98604.91;;;20.47;64.03
20023;BME280;10172;42.054;24.546;2022-10-26T07:19:08;98596.06;;;20.88;62.68
20023;BME280;10172;42.054;24.546;2022-10-26T07:21:34;98603.66;;;20.59;62.84
20023;BME280;10172;42.054;24.546;2022-10-26T07:23:59;98603.75;;;20.49;62.21
20023;BME280;10172;42.054;24.546;2022-10-26T07:26:25;98597.59;;;20.91;60.91
20023;BME280;10172;42.054;24.546;2022-10-26T07:28:51;98610.78;;;20.60;60.90
20023;BME280;10172;42.054;24.546;2022-10-26T07:31:17;98608.19;;;20.76;61.71
20023;BME280;10172;42.054;24.546;2022-10-26T07:33:43;98612.50;;;20.95;60.52
20023;BME280;10172;42.054;24.546;2022-10-26T07:36:10;98613.00;;;20.98;59.82
20023;BME280;10172;42.054;24.546;2022-10-26T07:38:37;98609.66;;;21.04;59.88
20023;BME280;10172;42.054;24.546;2022-10-26T07:41:03;98611.19;;;20.73;61.33
20023;BME280;10172;42.054;24.546;2022-10-26T07:43:28;98616.38;;;20.66;60.94
20023;BME280;10172;42.054;24.546;2022-10-26T07:45:54;98612.88;;;21.00;59.58
20023;BME280;10172;42.054;24.546;2022-10-26T07:48:19;98615.00;;;20.88;60.21
20023;BME280;10172;42.054;24.546;2022-10-26T07:50:45;98596.00;;;20.80;60.75
20023;BME280;10172;42.054;24.546;2022-10-26T07:53:10;98608.41;;;21.16;60.07
20023;BME280;10172;42.054;24.546;2022-10-26T07:55:36;98596.94;;;21.30;57.99
20023;BME280;10172;42.054;24.546;2022-10-26T07:58:01;98604.47;;;21.53;57.02
20023;BME280;10172;42.054;24.546;2022-10-26T08:00:27;98608.75;;;21.71;57.34
20023;BME280;10172;42.054;24.546;2022-10-26T08:02:55;98607.91;;;21.63;57.12
20023;BME280;10172;42.054;24.546;2022-10-26T08:05:21;98602.09;;;21.58;56.82
20023;BME280;10172;42.054;24.546;2022-10-26T08:07:47;98602.47;;;21.13;58.17
20023;BME280;10172;42.054;24.546;2022-10-26T08:10:13;98604.53;;;21.19;58.47
20023;BME280;10172;42.054;24.546;2022-10-26T08:12:41;98602.06;;;21.41;57.86
20023;BME280;10172;42.054;24.546;2022-10-26T08:15:07;98592.91;;;21.34;58.21
20023;BME280;10172;42.054;24.546;2022-10-26T08:17:33;98602.41;;;21.46;58.19
20023;BME280;10172;42.054;24.546;2022-10-26T08:19:59;98603.84;;;21.67;57.28
20023;BME280;10172;42.054;24.546;2022-10-26T08:22:25;98607.94;;;21.29;57.52
20023;BME280;10172;42.054;24.546;2022-10-26T08:24:52;98606.22;;;21.70;56.90
20023;BME280;10172;42.054;24.546;2022-10-26T08:27:18;98602.13;;;21.66;55.72
20023;BME280;10172;42.054;24.546;2022-10-26T08:29:43;98608.47;;;21.98;55.30
20023;BME280;10172;42.054;24.546;2022-10-26T08:32:08;98601.31;;;21.73;56.07
20023;BME280;10172;42.054;24.546;2022-10-26T08:34:34;98596.72;;;21.66;54.53
20023;BME280;10172;42.054;24.546;2022-10-26T08:36:59;98599.09;;;21.69;55.20
20023;BME280;10172;42.054;24.546;2022-10-26T08:39:25;98596.75;;;21.82;53.89
20023;BME280;10172;42.054;24.546;2022-10-26T08:42:01;98600.53;;;22.53;52.36
20023;BME280;10172;42.054;24.546;2022-10-26T08:44:45;98591.41;;;22.38;51.38
20023;BME280;10172;42.054;24.546;2022-10-26T08:47:20;98582.84;;;22.90;50.84
20023;BME280;10172;42.054;24.546;2022-10-26T08:49:48;98606.97;;;22.52;51.03
20023;BME280;10172;42.054;24.546;2022-10-26T08:52:20;98598.00;;;22.20;51.61
20023;BME280;10172;42.054;24.546;2022-10-26T08:54:51;98590.88;;;22.51;50.91
20023;BME280;10172;42.054;24.546;2022-10-26T08:57:28;98600.19;;;22.73;50.41
20023;BME280;10172;42.054;24.546;2022-10-26T09:00:01;98595.75;;;22.80;49.64
20023;BME280;10172;42.054;24.546;2022-10-26T09:02:28;98591.53;;;22.61;49.80
20023;BME280;10172;42.054;24.546;2022-10-26T09:04:54;98599.53;;;22.46;48.90
20023;BME280;10172;42.054;24.546;2022-10-26T09:10:17;98593.06;;;22.72;48.07
20023;BME280;10172;42.054;24.546;2022-10-26T09:16:21;98595.94;;;22.78;48.66
20023;BME280;10172;42.054;24.546;2022-10-26T09:19:08;98597.00;;;23.16;48.54
20023;BME280;10172;42.054;24.546;2022-10-26T09:27:10;98589.22;;;23.83;45.27
20023;BME280;10172;42.054;24.546;2022-10-26T09:29:40;98585.94;;;23.26;45.96
20023;BME280;10172;42.054;24.546;2022-10-26T09:32:25;98585.94;;;23.95;45.83
20023;BME280;10172;42.054;24.546;2022-10-26T09:35:21;98581.09;;;24.65;44.06
20023;BME280;10172;42.054;24.546;2022-10-26T09:40:55;98587.28;;;23.91;44.27
20023;BME280;10172;42.054;24.546;2022-10-26T09:43:42;98584.94;;;23.88;44.11
20023;BME280;10172;42.054;24.546;2022-10-26T09:46:19;98591.53;;;23.94;44.27
20023;BME280;10172;42.054;24.546;2022-10-26T09:48:57;98583.66;;;23.99;43.60
20023;BME280;10172;42.054;24.546;2022-10-26T09:51:24;98592.00;;;24.43;43.50
20023;BME280;10172;42.054;24.546;2022-10-26T09:53:53;98581.19;;;24.72;42.29
20023;BME280;10172;42.054;24.546;2022-10-26T09:56:20;98581.94;;;24.28;42.49
20023;BME280;10172;42.054;24.546;2022-10-26T09:58:56;98575.34;;;24.23;42.55
20023;BME280;10172;42.054;24.546;2022-10-26T10:06:40;98583.50;;;24.00;44.01
20023;BME280;10172;42.054;24.546;2022-10-26T10:11:49;98568.44;;;24.72;42.87
20023;BME280;10172;42.054;24.546;2022-10-26T10:16:51;98544.81;;;24.87;41.93
20023;BME280;10172;42.054;24.546;2022-10-26T10:19:25;98552.13;;;25.02;41.34
20023;BME280;10172;42.054;24.546;2022-10-26T10:21:55;98551.13;;;25.68;40.56
20023;BME280;10172;42.054;24.546;2022-10-26T10:29:32;98551.56;;;25.71;39.74
20023;BME280;10172;42.054;24.546;2022-10-26T10:32:00;98536.81;;;25.66;40.07
20023;BME280;10172;42.054;24.546;2022-10-26T10:34:29;98536.34;;;24.68;42.36
20023;BME280;10172;42.054;24.546;2022-10-26T10:36:55;98539.63;;;25.93;39.51
20023;BME280;10172;42.054;24.546;2022-10-26T10:39:36;98532.75;;;25.40;40.69
20023;BME280;10172;42.054;24.546;2022-10-26T10:42:22;98540.72;;;25.57;40.37
20023;BME280;10172;42.054;24.546;2022-10-26T10:44:54;98529.28;;;25.32;41.05
20023;BME280;10172;42.054;24.546;2022-10-26T10:47:24;98523.72;;;26.39;38.50
20023;BME280;10172;42.054;24.546;2022-10-26T10:50:17;98525.44;;;27.09;37.69
20023;BME280;10172;42.054;24.546;2022-10-26T10:52:41;98526.16;;;26.28;38.76
20023;BME280;10172;42.054;24.546;2022-10-26T11:00:49;98509.19;;;26.11;39.27
20023;BME280;10172;42.054;24.546;2022-10-26T11:03:37;98510.50;;;25.73;39.92
20023;BME280;10172;42.054;24.546;2022-10-26T11:06:13;98501.59;;;26.55;38.17
20023;BME280;10172;42.054;24.546;2022-10-26T11:09:01;98508.91;;;25.78;39.30
20023;BME280;10172;42.054;24.546;2022-10-26T11:12:24;98510.41;;;27.19;37.56
20023;BME280;10172;42.054;24.546;2022-10-26T11:15:04;98506.88;;;27.39;36.67
20023;BME280;10172;42.054;24.546;2022-10-26T11:17:37;98494.13;;;27.52;35.97
20023;BME280;10172;42.054;24.546;2022-10-26T11:20:16;98488.69;;;26.15;37.50
20023;BME280;10172;42.054;24.546;2022-10-26T11:25:24;98476.53;;;27.87;35.13
20023;BME280;10172;42.054;24.546;2022-10-26T11:27:58;98484.22;;;27.45;35.65
20023;BME280;10172;42.054;24.546;2022-10-26T11:30:28;98477.22;;;26.20;37.42
20023;BME280;10172;42.054;24.546;2022-10-26T11:33:22;98480.28;;;27.06;37.10
20023;BME280;10172;42.054;24.546;2022-10-26T11:35:56;98481.00;;;26.53;37.71
20023;BME280;10172;42.054;24.546;2022-10-26T11:43:41;98485.75;;;27.54;36.10
20023;BME280;10172;42.054;24.546;2022-10-26T11:54:26;98492.91;;;27.61;34.99
20023;BME280;10172;42.054;24.546;2022-10-26T11:56:54;98481.66;;;27.37;36.12
20023;BME280;10172;42.054;24.546;2022-10-26T11:59:26;98484.53;;;27.15;36.93
20023;BME280;10172;42.054;24.546;2022-10-26T12:02:14;98481.50;;;25.86;38.55
20023;BME280;10172;42.054;24.546;2022-10-26T12:04:41;98474.09;;;26.85;37.48
20023;BME280;10172;42.054;24.546;2022-10-26T12:07:33;98483.28;;;27.78;35.62
20023;BME280;10172;42.054;24.546;2022-10-26T12:10:01;98482.94;;;26.93;36.56
20023;BME280;10172;42.054;24.546;2022-10-26T12:12:37;98470.56;;;26.29;38.30
20023;BME280;10172;42.054;24.546;2022-10-26T12:15:34;98467.16;;;25.99;38.33
20023;BME280;10172;42.054;24.546;2022-10-26T12:20:52;98471.91;;;25.69;39.16
20023;BME280;10172;42.054;24.546;2022-10-26T12:23:18;98477.78;;;25.16;39.72
20023;BME280;10172;42.054;24.546;2022-10-26T12:25:44;98469.91;;;26.54;36.94
20023;BME280;10172;42.054;24.546;2022-10-26T12:28:37;98465.03;;;27.25;36.04
20023;BME280;10172;42.054;24.546;2022-10-26T12:33:57;98461.19;;;28.39;34.08
20023;BME280;10172;42.054;24.546;2022-10-26T12:55:31;98461.28;;;27.33;34.88
20023;BME280;10172;42.054;24.546;2022-10-26T13:08:44;98466.44;;;27.75;34.41
20023;BME280;10172;42.054;24.546;2022-10-26T13:11:19;98457.59;;;27.60;34.09
20023;BME280;10172;42.054;24.546;2022-10-26T13:13:54;98461.34;;;27.46;34.15
20023;BME280;10172;42.054;24.546;2022-10-26T13:16:23;98453.25;;;28.11;33.80
20023;BME280;10172;42.054;24.546;2022-10-26T13:18:49;98450.09;;;28.27;33.17
20023;BME280;10172;42.054;24.546;2022-10-26T13:21:17;98457.63;;;28.45;33.15
20023;BME280;10172;42.054;24.546;2022-10-26T13:23:54;98454.25;;;28.36;33.15
20023;BME280;10172;42.054;24.546;2022-10-26T13:26:25;98459.25;;;27.48;34.04
20023;BME280;10172;42.054;24.546;2022-10-26T13:28:53;98456.41;;;28.08;33.25
20023;BME280;10172;42.054;24.546;2022-10-26T13:34:09;98452.34;;;27.78;33.16
20023;BME280;10172;42.054;24.546;2022-10-26T13:36:55;98447.84;;;28.95;32.67
20023;BME280;10172;42.054;24.546;2022-10-26T13:39:34;98444.56;;;28.54;32.60
20023;BME280;10172;42.054;24.546;2022-10-26T13:42:01;98450.88;;;28.47;32.59
20023;BME280;10172;42.054;24.546;2022-10-26T13:44:37;98451.28;;;27.66;33.77
20023;BME280;10172;42.054;24.546;2022-10-26T13:47:21;98447.91;;;28.75;32.33
20023;BME280;10172;42.054;24.546;2022-10-26T13:49:51;98442.25;;;28.64;31.78
20023;BME280;10172;42.054;24.546;2022-10-26T13:52:24;98446.25;;;28.48;32.02
20023;BME280;10172;42.054;24.546;2022-10-26T13:54:56;98449.63;;;27.91;33.91
20023;BME280;10172;42.054;24.546;2022-10-26T13:59:59;98442.50;;;28.16;33.54
20023;BME280;10172;42.054;24.546;2022-10-26T14:02:27;98445.97;;;28.89;32.37
20023;BME280;10172;42.054;24.546;2022-10-26T14:05:02;98446.09;;;28.10;32.98
20023;BME280;10172;42.054;24.546;2022-10-26T14:10:06;98455.78;;;27.26;33.92
20023;BME280;10172;42.054;24.546;2022-10-26T14:12:32;98453.41;;;27.90;34.73
20023;BME280;10172;42.054;24.546;2022-10-26T14:15:08;98467.69;;;27.05;36.09
20023;BME280;10172;42.054;24.546;2022-10-26T14:17:34;98459.25;;;26.66;36.65
20023;BME280;10172;42.054;24.546;2022-10-26T14:20:01;98467.59;;;26.02;37.95
20023;BME280;10172;42.054;24.546;2022-10-26T14:22:27;98461.44;;;26.15;38.09
20023;BME280;10172;42.054;24.546;2022-10-26T14:24:57;98470.13;;;25.40;39.29
20023;BME280;10172;42.054;24.546;2022-10-26T14:27:25;98458.75;;;25.51;39.52
20023;BME280;10172;42.054;24.546;2022-10-26T14:29:53;98465.34;;;25.28;40.21
20023;BME280;10172;42.054;24.546;2022-10-26T14:32:26;98457.69;;;25.74;39.76
20023;BME280;10172;42.054;24.546;2022-10-26T14:34:52;98470.06;;;25.55;40.17
20023;BME280;10172;42.054;24.546;2022-10-26T14:38:18;98467.16;;;25.99;39.22
20023;BME280;10172;42.054;24.546;2022-10-26T14:40:28;98470.50;;;26.50;37.54
20023;BME280;10172;42.054;24.546;2022-10-26T14:43:00;98469.13;;;26.67;38.80
20023;BME280;10172;42.054;24.546;2022-10-26T14:47:55;98474.22;;;25.93;39.32
20023;BME280;10172;42.054;24.546;2022-10-26T14:50:22;98478.75;;;24.64;42.46
20023;BME280;10172;42.054;24.546;2022-10-26T14:52:53;98479.13;;;24.61;42.90
20023;BME280;10172;42.054;24.546;2022-10-26T14:55:20;98485.91;;;24.80;42.15
20023;BME280;10172;42.054;24.546;2022-10-26T14:57:50;98486.03;;;25.22;40.47
20023;BME280;10172;42.054;24.546;2022-10-26T15:00:23;98487.00;;;25.36;40.10
20023;BME280;10172;42.054;24.546;2022-10-26T15:02:51;98486.34;;;25.13;40.33
20023;BME280;10172;42.054;24.546;2022-10-26T15:05:29;98486.56;;;25.32;40.12
20023;BME280;10172;42.054;24.546;2022-10-26T15:07:58;98477.56;;;25.89;38.69
20023;BME280;10172;42.054;24.546;2022-10-26T15:13:20;98484.38;;;24.48;41.65
20023;BME280;10172;42.054;24.546;2022-10-26T15:15:50;98490.19;;;24.74;41.11
20023;BME280;10172;42.054;24.546;2022-10-26T15:18:25;98490.63;;;24.34;42.62
20023;BME280;10172;42.054;24.546;2022-10-26T15:20:53;98492.88;;;24.16;43.44
20023;BME280;10172;42.054;24.546;2022-10-26T15:23:24;98496.38;;;24.54;41.95
20023;BME280;10172;42.054;24.546;2022-10-26T15:25:55;98495.38;;;24.55;41.95
20023;BME280;10172;42.054;24.546;2022-10-26T15:28:24;98500.53;;;23.36;44.34
20023;BME280;10172;42.054;24.546;2022-10-26T15:31:21;98512.44;;;23.35;45.14
20023;BME280;10172;42.054;24.546;2022-10-26T15:36:22;98506.88;;;22.98;45.88